Costa Luminosa — ICGU — position and weather

sailwx.info

Track history (hours):
 
Tides and Currents Weather Stations Pressure Air Temp Water Temp Dewpoint Dewpoint Depression Visibility Wind Speed Wind Dir Waves Ship Positions

Costa Luminosa

Last reported at 2016-Jul-27 16:33 UTC. Time now 2016-Jul-27 17:20 UTC.
Position N 59°58' E 029°47'.

Length 294 m; draft 8.2 m.

Type: Passenger vessel. MMSI: 247257900.

Date/timePositionNaut miles runAvg speedWind from/ knotsBaromVisibWave heightAir tempDewpointWater temp
2016-Jul-27 16:33N 59°58' E 029°47'1110.6
2016-Jul-27 15:33N 59°57' E 030°08'2 1.9
2016-Jul-27 14:33N 59°57' E 030°11'0 0.0
2016-Jul-27 13:33N 59°57' E 030°11'0 0.0
2016-Jul-27 12:33N 59°57' E 030°11'0 0.0
2016-Jul-27 11:33N 59°57' E 030°11'0 0.0
2016-Jul-27 10:33N 59°57' E 030°11'0 0.0
2016-Jul-27 09:33N 59°57' E 030°11'0 0.0
2016-Jul-27 08:33N 59°57' E 030°11'0 0.0
2016-Jul-27 07:33N 59°57' E 030°11'0 0.0
2016-Jul-27 06:30N 59°57' E 030°11'0 0.0
2016-Jul-27 05:33N 59°57' E 030°11'0 0.0
2016-Jul-27 04:33N 59°57' E 030°11'0 0.0
2016-Jul-27 03:33N 59°57' E 030°11'0 0.0
2016-Jul-27 02:33N 59°57' E 030°11'0 0.0
2016-Jul-27 01:33N 59°57' E 030°11'0 0.0
2016-Jul-27 00:33N 59°57' E 030°11'0 0.0
2016-Jul-26 23:33N 59°57' E 030°11'0 0.0
2016-Jul-26 22:33N 59°57' E 030°11'0 0.0
2016-Jul-26 21:33N 59°57' E 030°11'0 0.0
2016-Jul-26 20:33N 59°57' E 030°11'0 0.0
2016-Jul-26 19:33N 59°57' E 030°11'0 0.0
2016-Jul-26 18:33N 59°57' E 030°11'0 0.0
2016-Jul-26 17:33N 59°57' E 030°11'0 0.0
2016-Jul-26 16:33N 59°57' E 030°11'0 0.0
2016-Jul-26 15:33N 59°57' E 030°11'0 0.0
2016-Jul-26 14:33N 59°57' E 030°11'0 0.0
2016-Jul-26 13:33N 59°57' E 030°11'0 0.0
2016-Jul-26 12:33N 59°57' E 030°11'0 0.0
2016-Jul-26 11:33N 59°57' E 030°11'0 0.0
2016-Jul-26 10:33N 59°57' E 030°11'0 0.0
2016-Jul-26 09:33N 59°57' E 030°11'0 0.0
2016-Jul-26 08:33N 59°57' E 030°11'0 0.0
2016-Jul-26 07:33N 59°57' E 030°11'0 0.0
2016-Jul-26 06:33N 59°57' E 030°11'0 0.0
2016-Jul-26 05:33N 59°57' E 030°11'0 0.0
2016-Jul-26 04:33N 59°57' E 030°11'0 0.0
2016-Jul-26 03:33N 59°57' E 030°11'7 7.3
2016-Jul-26 02:33N 59°56' E 029°57'1111.3
2016-Jul-26 01:33N 60°00' E 029°36'1211.8
2016-Jul-26 00:32N 60°02' E 029°12'1313.1
2016-Jul-25 23:33N 60°02' E 028°47'1313.0
2016-Jul-25 22:33N 60°05' E 028°21'1716.7
2016-Jul-25 21:33N 60°11' E 027°50'1716.5
2016-Jul-25 20:33N 60°03' E 027°20'1615.6
2016-Jul-25 19:33N 59°59' E 026°51'1716.6
2016-Jul-25 18:34N 59°56' E 026°18'1616.1
2016-Jul-25 17:33N 59°52' E 025°47'2315.4
2016-Jul-25 16:04N 59°59' E 025°03'812.6
2016-Jul-25 15:26N 60°05' E 024°54'2 0.1
2016-Jul-25 03:20N 60°03' E 024°54'810.4
2016-Jul-25 02:33N 59°55' E 024°55'9 9.5
2016-Jul-25 01:33N 59°47' E 024°47'1010.4
2016-Jul-25 00:33N 59°44' E 024°27'1010.1
2016-Jul-24 23:33N 59°41' E 024°07'1010.1
2016-Jul-24 22:33N 59°38' E 023°48'1010.4
2016-Jul-24 21:33N 59°35' E 023°29'1010.2
2016-Jul-24 20:33N 59°32' E 023°09'1010.2
2016-Jul-24 19:33N 59°29' E 022°50'2311.1
2016-Jul-24 17:27N 59°23' E 022°06'1310.9
2016-Jul-24 16:15N 59°24' E 021°40'1110.7
2016-Jul-24 15:14N 59°25' E 021°18'95 8.7
2016-Jul-24 04:17N 59°20' E 018°11'2 2.7
2016-Jul-24 03:33N 59°21' E 018°08'0 0.0
2016-Jul-24 02:33N 59°21' E 018°08'0 0.0
2016-Jul-24 01:27N 59°21' E 018°08'0 0.0
2016-Jul-24 00:33N 59°21' E 018°08'0 0.0
2016-Jul-22 18:12N 59°21' E 018°08'0 0.0
2016-Jul-22 17:30N 59°21' E 018°08'96 4.7
2016-Jul-21 21:10N 59°30' E 021°15'813.1
2016-Jul-21 20:33N 59°28' E 021°31'1414.4
2016-Jul-21 19:34N 59°27' E 021°59'3516.6
2016-Jul-21 17:28N 59°32' E 023°06'1516.7
2016-Jul-21 16:33N 59°31' E 023°37'2016.6
2016-Jul-21 15:21N 59°30' E 024°16'1315.8
2016-Jul-21 14:34N 59°32' E 024°40'5 5.2
2016-Jul-21 13:31N 59°27' E 024°46'0 0.0
2016-Jul-21 12:31N 59°27' E 024°46'0 0.0
2016-Jul-21 11:31N 59°27' E 024°46'0 0.0
2016-Jul-21 10:31N 59°27' E 024°46'0 0.0
2016-Jul-21 09:31N 59°27' E 024°46'0 0.1
2016-Jul-21 08:31N 59°27' E 024°46'0 0.1
2016-Jul-21 07:31N 59°27' E 024°46'0 0.1
2016-Jul-21 06:31N 59°27' E 024°46'0 0.1
2016-Jul-21 05:33N 59°27' E 024°46'1111.1
2016-Jul-21 04:34N 59°38' E 024°40'1312.8
2016-Jul-21 03:33N 59°48' E 024°56'4012.9
2016-Jul-21 00:26N 59°59' E 026°13'1213.2
2016-Jul-20 23:34N 60°01' E 026°36'1413.2
2016-Jul-20 22:30N 59°59' E 027°03'1313.8
2016-Jul-20 21:33N 60°06' E 027°26'1515.2
2016-Jul-20 20:33N 60°11' E 027°54'1615.8
2016-Jul-20 19:33N 60°05' E 028°24'1615.6
2016-Jul-20 18:33N 60°03' E 028°55'1514.5
2016-Jul-20 17:33N 60°02' E 029°24'1111.2
2016-Jul-20 16:32N 59°59' E 029°46'1010.6
2016-Jul-20 15:33N 59°57' E 030°06'2 2.4
2016-Jul-20 14:32N 59°57' E 030°11'0 0.0
2016-Jul-20 13:26N 59°57' E 030°11'0 0.0
2016-Jul-20 12:32N 59°57' E 030°11'0 0.0
2016-Jul-20 11:32N 59°57' E 030°11'0 0.0
2016-Jul-20 10:32N 59°57' E 030°11'0 0.0
2016-Jul-20 09:32N 59°57' E 030°11'0 0.0
2016-Jul-20 08:32N 59°57' E 030°11'0 0.0
2016-Jul-20 07:32N 59°57' E 030°11'0 0.0
2016-Jul-20 06:32N 59°57' E 030°11'0 0.0
2016-Jul-20 05:32N 59°57' E 030°11'0 0.0
2016-Jul-20 04:32N 59°57' E 030°11'0 0.0
2016-Jul-20 03:32N 59°57' E 030°11'0 0.0
2016-Jul-20 02:32N 59°57' E 030°11'0 0.0
2016-Jul-20 01:32N 59°57' E 030°11'0 0.0
2016-Jul-20 00:32N 59°57' E 030°11'0 0.0
2016-Jul-19 23:29N 59°57' E 030°11'0 0.0
2016-Jul-19 22:32N 59°57' E 030°11'0 0.0
2016-Jul-19 21:32N 59°57' E 030°11'0 0.0
2016-Jul-19 20:32N 59°57' E 030°11'0 0.0
2016-Jul-19 19:32N 59°57' E 030°11'0 0.0
2016-Jul-19 18:32N 59°57' E 030°11'0 0.0
2016-Jul-19 17:32N 59°57' E 030°11'0 0.0
2016-Jul-19 16:32N 59°57' E 030°11'0 0.0
2016-Jul-19 15:32N 59°57' E 030°11'0 0.0
2016-Jul-19 14:32N 59°57' E 030°11'0 0.0
2016-Jul-19 13:32N 59°57' E 030°11'0 0.0
2016-Jul-19 12:32N 59°57' E 030°11'0 0.0
2016-Jul-19 11:29N 59°57' E 030°11'0 0.0
2016-Jul-19 10:29N 59°57' E 030°11'0 0.0
2016-Jul-19 09:32N 59°57' E 030°11'0 0.0
2016-Jul-19 08:32N 59°57' E 030°11'0 0.0
2016-Jul-19 07:32N 59°57' E 030°11'0 0.0
2016-Jul-19 04:32N 59°57' E 030°11'0 0.1
2016-Jul-19 03:33N 59°57' E 030°11'8 7.7
2016-Jul-19 02:33N 59°56' E 029°56'1110.8
2016-Jul-19 01:33N 60°00' E 029°36'1212.3
2016-Jul-19 00:33N 60°02' E 029°12'1313.0
2016-Jul-18 23:34N 60°02' E 028°46'1312.8
2016-Jul-18 22:34N 60°05' E 028°21'1313.0
2016-Jul-18 21:33N 60°10' E 027°56'1312.8
2016-Jul-18 20:33N 60°06' E 027°32'1313.4
2016-Jul-18 19:34N 59°59' E 027°09'1616.1
2016-Jul-18 18:34N 59°59' E 026°37'1817.6
2016-Jul-18 17:34N 59°55' E 026°03'1716.8
2016-Jul-18 16:33N 59°53' E 025°30'1716.7
2016-Jul-18 15:33N 59°60' E 024°59'7 0.5
2016-Jul-18 02:27N 59°53' E 024°52'1011.0
2016-Jul-18 01:33N 59°46' E 024°38'1010.3
2016-Jul-18 00:33N 59°43' E 024°19'1110.3
2016-Jul-17 23:31N 59°40' E 023°59'1010.7
2016-Jul-17 22:33N 59°37' E 023°40'1110.6
2016-Jul-17 21:33N 59°33' E 023°20'1110.7
2016-Jul-17 20:31N 59°29' E 022°59'  
Track history (hours):
 
Tides and Currents Weather Stations Pressure Air Temp Water Temp Dewpoint Dewpoint Depression Visibility Wind Speed Wind Dir Waves Ship Positions

Costa Luminosa

Last reported at 2016-Jul-27 16:33 UTC. Time now 2016-Jul-27 17:20 UTC.
Position N 59°58' E 029°47'.

Length 294 m; draft 8.2 m.

Type: Passenger vessel. MMSI: 247257900.

Date/timePositionNaut miles runAvg speedWind from/ knotsBaromVisibWave heightAir tempDewpointWater temp
2016-Jul-27 16:33N 59°58' E 029°47'1110.6
2016-Jul-27 15:33N 59°57' E 030°08'2 1.9
2016-Jul-27 14:33N 59°57' E 030°11'0 0.0
2016-Jul-27 13:33N 59°57' E 030°11'0 0.0
2016-Jul-27 12:33N 59°57' E 030°11'0 0.0
2016-Jul-27 11:33N 59°57' E 030°11'0 0.0
2016-Jul-27 10:33N 59°57' E 030°11'0 0.0
2016-Jul-27 09:33N 59°57' E 030°11'0 0.0
2016-Jul-27 08:33N 59°57' E 030°11'0 0.0
2016-Jul-27 07:33N 59°57' E 030°11'0 0.0
2016-Jul-27 06:30N 59°57' E 030°11'0 0.0
2016-Jul-27 05:33N 59°57' E 030°11'0 0.0
2016-Jul-27 04:33N 59°57' E 030°11'0 0.0
2016-Jul-27 03:33N 59°57' E 030°11'0 0.0
2016-Jul-27 02:33N 59°57' E 030°11'0 0.0
2016-Jul-27 01:33N 59°57' E 030°11'0 0.0
2016-Jul-27 00:33N 59°57' E 030°11'0 0.0
2016-Jul-26 23:33N 59°57' E 030°11'0 0.0
2016-Jul-26 22:33N 59°57' E 030°11'0 0.0
2016-Jul-26 21:33N 59°57' E 030°11'0 0.0
2016-Jul-26 20:33N 59°57' E 030°11'0 0.0
2016-Jul-26 19:33N 59°57' E 030°11'0 0.0
2016-Jul-26 18:33N 59°57' E 030°11'0 0.0
2016-Jul-26 17:33N 59°57' E 030°11'0 0.0
2016-Jul-26 16:33N 59°57' E 030°11'0 0.0
2016-Jul-26 15:33N 59°57' E 030°11'0 0.0
2016-Jul-26 14:33N 59°57' E 030°11'0 0.0
2016-Jul-26 13:33N 59°57' E 030°11'0 0.0
2016-Jul-26 12:33N 59°57' E 030°11'0 0.0
2016-Jul-26 11:33N 59°57' E 030°11'0 0.0
2016-Jul-26 10:33N 59°57' E 030°11'0 0.0
2016-Jul-26 09:33N 59°57' E 030°11'0 0.0
2016-Jul-26 08:33N 59°57' E 030°11'0 0.0
2016-Jul-26 07:33N 59°57' E 030°11'0 0.0
2016-Jul-26 06:33N 59°57' E 030°11'0 0.0
2016-Jul-26 05:33N 59°57' E 030°11'0 0.0
2016-Jul-26 04:33N 59°57' E 030°11'0 0.0
2016-Jul-26 03:33N 59°57' E 030°11'7 7.3
2016-Jul-26 02:33N 59°56' E 029°57'1111.3
2016-Jul-26 01:33N 60°00' E 029°36'1211.8
2016-Jul-26 00:32N 60°02' E 029°12'1313.1
2016-Jul-25 23:33N 60°02' E 028°47'1313.0
2016-Jul-25 22:33N 60°05' E 028°21'1716.7
2016-Jul-25 21:33N 60°11' E 027°50'1716.5
2016-Jul-25 20:33N 60°03' E 027°20'1615.6
2016-Jul-25 19:33N 59°59' E 026°51'1716.6
2016-Jul-25 18:34N 59°56' E 026°18'1616.1
2016-Jul-25 17:33N 59°52' E 025°47'2315.4
2016-Jul-25 16:04N 59°59' E 025°03'812.6
2016-Jul-25 15:26N 60°05' E 024°54'2 0.1
2016-Jul-25 03:20N 60°03' E 024°54'810.4
2016-Jul-25 02:33N 59°55' E 024°55'9 9.5
2016-Jul-25 01:33N 59°47' E 024°47'1010.4
2016-Jul-25 00:33N 59°44' E 024°27'1010.1
2016-Jul-24 23:33N 59°41' E 024°07'1010.1
2016-Jul-24 22:33N 59°38' E 023°48'1010.4
2016-Jul-24 21:33N 59°35' E 023°29'1010.2
2016-Jul-24 20:33N 59°32' E 023°09'1010.2
2016-Jul-24 19:33N 59°29' E 022°50'2311.1
2016-Jul-24 17:27N 59°23' E 022°06'1310.9
2016-Jul-24 16:15N 59°24' E 021°40'1110.7
2016-Jul-24 15:14N 59°25' E 021°18'95 8.7
2016-Jul-24 04:17N 59°20' E 018°11'2 2.7
2016-Jul-24 03:33N 59°21' E 018°08'0 0.0
2016-Jul-24 02:33N 59°21' E 018°08'0 0.0
2016-Jul-24 01:27N 59°21' E 018°08'0 0.0
2016-Jul-24 00:33N 59°21' E 018°08'0 0.0
2016-Jul-22 18:12N 59°21' E 018°08'0 0.0
2016-Jul-22 17:30N 59°21' E 018°08'96 4.7
2016-Jul-21 21:10N 59°30' E 021°15'813.1
2016-Jul-21 20:33N 59°28' E 021°31'1414.4
2016-Jul-21 19:34N 59°27' E 021°59'3516.6
2016-Jul-21 17:28N 59°32' E 023°06'1516.7
2016-Jul-21 16:33N 59°31' E 023°37'2016.6
2016-Jul-21 15:21N 59°30' E 024°16'1315.8
2016-Jul-21 14:34N 59°32' E 024°40'5 5.2
2016-Jul-21 13:31N 59°27' E 024°46'0 0.0
2016-Jul-21 12:31N 59°27' E 024°46'0 0.0
2016-Jul-21 11:31N 59°27' E 024°46'0 0.0
2016-Jul-21 10:31N 59°27' E 024°46'0 0.0
2016-Jul-21 09:31N 59°27' E 024°46'0 0.1
2016-Jul-21 08:31N 59°27' E 024°46'0 0.1
2016-Jul-21 07:31N 59°27' E 024°46'0 0.1
2016-Jul-21 06:31N 59°27' E 024°46'0 0.1
2016-Jul-21 05:33N 59°27' E 024°46'1111.1
2016-Jul-21 04:34N 59°38' E 024°40'1312.8
2016-Jul-21 03:33N 59°48' E 024°56'4012.9
2016-Jul-21 00:26N 59°59' E 026°13'1213.2
2016-Jul-20 23:34N 60°01' E 026°36'1413.2
2016-Jul-20 22:30N 59°59' E 027°03'1313.8
2016-Jul-20 21:33N 60°06' E 027°26'1515.2
2016-Jul-20 20:33N 60°11' E 027°54'1615.8
2016-Jul-20 19:33N 60°05' E 028°24'1615.6
2016-Jul-20 18:33N 60°03' E 028°55'1514.5
2016-Jul-20 17:33N 60°02' E 029°24'1111.2
2016-Jul-20 16:32N 59°59' E 029°46'1010.6
2016-Jul-20 15:33N 59°57' E 030°06'2 2.4
2016-Jul-20 14:32N 59°57' E 030°11'0 0.0
2016-Jul-20 13:26N 59°57' E 030°11'0 0.0
2016-Jul-20 12:32N 59°57' E 030°11'0 0.0
2016-Jul-20 11:32N 59°57' E 030°11'0 0.0
2016-Jul-20 10:32N 59°57' E 030°11'0 0.0
2016-Jul-20 09:32N 59°57' E 030°11'0 0.0
2016-Jul-20 08:32N 59°57' E 030°11'0 0.0
2016-Jul-20 07:32N 59°57' E 030°11'0 0.0
2016-Jul-20 06:32N 59°57' E 030°11'0 0.0
2016-Jul-20 05:32N 59°57' E 030°11'0 0.0
2016-Jul-20 04:32N 59°57' E 030°11'0 0.0
2016-Jul-20 03:32N 59°57' E 030°11'0 0.0
2016-Jul-20 02:32N 59°57' E 030°11'0 0.0
2016-Jul-20 01:32N 59°57' E 030°11'0 0.0
2016-Jul-20 00:32N 59°57' E 030°11'0 0.0
2016-Jul-19 23:29N 59°57' E 030°11'0 0.0
2016-Jul-19 22:32N 59°57' E 030°11'0 0.0
2016-Jul-19 21:32N 59°57' E 030°11'0 0.0
2016-Jul-19 20:32N 59°57' E 030°11'0 0.0
2016-Jul-19 19:32N 59°57' E 030°11'0 0.0
2016-Jul-19 18:32N 59°57' E 030°11'0 0.0
2016-Jul-19 17:32N 59°57' E 030°11'0 0.0
2016-Jul-19 16:32N 59°57' E 030°11'0 0.0
2016-Jul-19 15:32N 59°57' E 030°11'0 0.0
2016-Jul-19 14:32N 59°57' E 030°11'0 0.0
2016-Jul-19 13:32N 59°57' E 030°11'0 0.0
2016-Jul-19 12:32N 59°57' E 030°11'0 0.0
2016-Jul-19 11:29N 59°57' E 030°11'0 0.0
2016-Jul-19 10:29N 59°57' E 030°11'0 0.0
2016-Jul-19 09:32N 59°57' E 030°11'0 0.0
2016-Jul-19 08:32N 59°57' E 030°11'0 0.0
2016-Jul-19 07:32N 59°57' E 030°11'0 0.0
2016-Jul-19 04:32N 59°57' E 030°11'0 0.1
2016-Jul-19 03:33N 59°57' E 030°11'8 7.7
2016-Jul-19 02:33N 59°56' E 029°56'1110.8
2016-Jul-19 01:33N 60°00' E 029°36'1212.3
2016-Jul-19 00:33N 60°02' E 029°12'1313.0
2016-Jul-18 23:34N 60°02' E 028°46'1312.8
2016-Jul-18 22:34N 60°05' E 028°21'1313.0
2016-Jul-18 21:33N 60°10' E 027°56'1312.8
2016-Jul-18 20:33N 60°06' E 027°32'1313.4
2016-Jul-18 19:34N 59°59' E 027°09'1616.1
2016-Jul-18 18:34N 59°59' E 026°37'1817.6
2016-Jul-18 17:34N 59°55' E 026°03'1716.8
2016-Jul-18 16:33N 59°53' E 025°30'1716.7
2016-Jul-18 15:33N 59°60' E 024°59'7 0.5
2016-Jul-18 02:27N 59°53' E 024°52'1011.0
2016-Jul-18 01:33N 59°46' E 024°38'1010.3
2016-Jul-18 00:33N 59°43' E 024°19'1110.3
2016-Jul-17 23:31N 59°40' E 023°59'1010.7
2016-Jul-17 22:33N 59°37' E 023°40'1110.6
2016-Jul-17 21:33N 59°33' E 023°20'1110.7
2016-Jul-17 20:31N 59°29' E 022°59'  

Dump ship's entire track history